地図

経路データ

SID SEASON NUMBER BASIN SUBBASIN NAME ISO_TIME NATURE LAT LON WMO_WIND WMO_PRES WMO_AGENCY TRACK_TYPE DIST2LAND LANDFALL IFLAG USA_AGENCY USA_ATCF_ID USA_LAT USA_LON USA_RECORD USA_STATUS USA_WIND USA_PRES USA_SSHS USA_R34_NE USA_R34_SE USA_R34_SW USA_R34_NW USA_R50_NE USA_R50_SE USA_R50_SW USA_R50_NW USA_R64_NE USA_R64_SE USA_R64_SW USA_R64_NW USA_POCI USA_ROCI USA_RMW USA_EYE TOKYO_LAT TOKYO_LON TOKYO_GRADE TOKYO_WIND TOKYO_PRES TOKYO_R50_DIR TOKYO_R50_LONG TOKYO_R50_SHORT TOKYO_R30_DIR TOKYO_R30_LONG TOKYO_R30_SHORT TOKYO_LAND CMA_LAT CMA_LON CMA_CAT CMA_WIND CMA_PRES HKO_LAT HKO_LON HKO_CAT HKO_WIND HKO_PRES NEWDELHI_LAT NEWDELHI_LON NEWDELHI_GRADE NEWDELHI_WIND NEWDELHI_PRES NEWDELHI_CI NEWDELHI_DP NEWDELHI_POCI REUNION_LAT REUNION_LON REUNION_TYPE REUNION_WIND REUNION_PRES REUNION_TNUM REUNION_CI REUNION_RMW REUNION_R34_NE REUNION_R34_SE REUNION_R34_SW REUNION_R34_NW REUNION_R50_NE REUNION_R50_SE REUNION_R50_SW REUNION_R50_NW REUNION_R64_NE REUNION_R64_SE REUNION_R64_SW REUNION_R64_NW BOM_LAT BOM_LON BOM_TYPE BOM_WIND BOM_PRES BOM_TNUM BOM_CI BOM_RMW BOM_R34_NE BOM_R34_SE BOM_R34_SW BOM_R34_NW BOM_R50_NE BOM_R50_SE BOM_R50_SW BOM_R50_NW BOM_R64_NE BOM_R64_SE BOM_R64_SW BOM_R64_NW BOM_ROCI BOM_POCI BOM_EYE BOM_POS_METHOD BOM_PRES_METHOD NADI_LAT NADI_LON NADI_CAT NADI_WIND NADI_PRES WELLINGTON_LAT WELLINGTON_LON WELLINGTON_WIND WELLINGTON_PRES DS824_LAT DS824_LON DS824_STAGE DS824_WIND DS824_PRES TD9636_LAT TD9636_LON TD9636_STAGE TD9636_WIND TD9636_PRES TD9635_LAT TD9635_LON TD9635_WIND TD9635_PRES TD9635_ROCI NEUMANN_LAT NEUMANN_LON NEUMANN_CLASS NEUMANN_WIND NEUMANN_PRES MLC_LAT MLC_LON MLC_CLASS MLC_WIND MLC_PRES USA_GUST BOM_GUST BOM_GUST_PER REUNION_GUST REUNION_GUST_PER USA_SEAHGT USA_SEARAD_NE USA_SEARAD_SE USA_SEARAD_SW USA_SEARAD_NW STORM_SPEED STORM_DIR
1952215N13131 1952 47 WP MM JEANNE:JEANNIE 1952-08-02 00:00:00 TS 13.4000 131.200 main 632 632 O________OOO__ jtwc_wp WP071952 13.4000 131.200 20 -1 13.4000 131.200 TC 20 13.4000 131.200 1 20 13.4000 131.200 20 1006 120 2 0
1952215N13131 1952 47 WP MM JEANNE:JEANNIE 1952-08-02 03:00:00 TS 13.4991 131.198 main 635 635 P________PPP__ WP071952 13.4900 131.190 22 -1 13.4900 131.190 TC 22 13.5266 131.223 1 21 13.4900 131.190 22 1006 120 2 0
1952215N13131 1952 47 WP MM JEANNE:JEANNIE 1952-08-02 06:00:00 TS 13.6131 131.212 main 637 637 O________OPO__ jtwc_wp WP071952 13.6000 131.200 25 -1 13.6000 131.200 TC 25 13.6525 131.247 1 22 13.6000 131.200 25 1006 120 3 14
1952215N13131 1952 47 WP MM JEANNE:JEANNIE 1952-08-02 09:00:00 TS 13.7512 131.250 main 653 653 P________PPP__ WP071952 13.7425 131.242 25 -1 13.7425 131.242 TC 25 13.7772 131.273 1 23 13.7425 131.242 25 1005 120 3 18
1952215N13131 1952 47 WP MM JEANNE:JEANNIE 1952-08-02 12:00:00 TS 13.9000 131.300 main 656 656 O________OOO__ jtwc_wp WP071952 13.9000 131.300 25 -1 13.9000 131.300 TC 25 13.9000 131.300 1 25 13.9000 131.300 25 1005 120 3 16
1952215N13131 1952 47 WP MM JEANNE:JEANNIE 1952-08-02 15:00:00 TS 14.0484 131.345 main 660 660 P________PPP__ WP071952 14.0575 131.350 25 -1 14.0575 131.350 TC 25 14.0209 131.331 1 25 14.0575 131.350 25 1005 120 3 17
1952215N13131 1952 47 WP MM JEANNE:JEANNIE 1952-08-02 18:00:00 TS 14.1856 131.393 main 677 677 O________OPO__ jtwc_wp WP071952 14.2000 131.400 25 -1 14.2000 131.400 TC 25 14.1425 131.370 1 25 14.2000 131.400 25 1005 120 3 20
1952215N13131 1952 47 WP MM JEANNE:JEANNIE 1952-08-02 21:00:00 TS 14.2863 131.438 main 680 680 P________PPP__ WP071952 14.2925 131.443 25 -1 14.2925 131.443 TC 25 14.2678 131.424 1 25 14.2925 131.443 25 1005 150 2 25
1952215N13131 1952 47 WP MM JEANNE:JEANNIE 1952-08-03 00:00:00 TS 14.4000 131.500 main 694 694 O________OOO__ jtwc_wp WP071952 14.4000 131.500 25 -1 14.4000 131.500 TC 25 14.4000 131.500 1 25 14.4000 131.500 25 1005 180 3 26
1952215N13131 1952 47 WP MM JEANNE:JEANNIE 1952-08-03 03:00:00 TS 14.5857 131.589 main 712 712 P________PPP__ WP071952 14.6000 131.585 25 -1 14.6000 131.585 TC 25 14.5428 131.599 1 25 14.6000 131.585 25 1005 180 4 28
1952215N13131 1952 47 WP MM JEANNE:JEANNIE 1952-08-03 06:00:00 TS 14.7731 131.705 main 731 731 O________OPO__ jtwc_wp WP071952 14.8000 131.700 25 -1 14.8000 131.700 TC 25 14.6925 131.720 1 25 14.8000 131.700 25 1005 180 4 40
1952215N13131 1952 47 WP MM JEANNE:JEANNIE 1952-08-03 09:00:00 TS 14.8865 131.851 main 755 755 P________PPP__ WP071952 14.9000 131.850 25 -1 14.9000 131.850 TC 25 14.8459 131.856 1 25 14.9000 131.850 25 1004 210 4 52
1952215N13131 1952 47 WP MM JEANNE:JEANNIE 1952-08-03 12:00:00 TS 15.0000 132.000 main 769 769 O________OOO__ jtwc_wp WP071952 15.0000 132.000 25 -1 15.0000 132.000 TC 25 15.0000 132.000 1 25 15.0000 132.000 25 1004 240 4 37
1952215N13131 1952 47 WP MM JEANNE:JEANNIE 1952-08-03 15:00:00 TS 15.1821 132.081 main 788 788 P________PPP__ WP071952 15.2000 132.093 25 -1 15.2000 132.093 TC 25 15.1287 132.046 1 26 15.2000 132.093 25 1004 270 4 25
1952215N13131 1952 47 WP MM JEANNE:JEANNIE 1952-08-03 18:00:00 TS 15.3652 132.179 main 807 807 O________OPO__ jtwc_wp WP071952 15.4000 132.200 25 -1 15.4000 132.200 TC 25 15.2608 132.114 1 27 15.4000 132.200 25 1004 300 4 35
1952215N13131 1952 47 WP MM JEANNE:JEANNIE 1952-08-03 21:00:00 TS 15.4722 132.296 main 822 822 P________PPP__ WP071952 15.4921 132.303 27 -1 15.4921 132.303 TC 27 15.4125 132.275 1 28 15.4921 132.303 27 1003 300 5 60
1952215N13131 1952 47 WP MM JEANNE:JEANNIE 1952-08-04 00:00:00 TS 15.6000 132.600 main 855 855 O________OOO__ jtwc_wp WP071952 15.6000 132.600 30 -1 15.6000 132.600 TC 30 15.6000 132.600 1 30 15.6000 132.600 30 1003 300 10 70
1952215N13131 1952 47 WP MM JEANNE:JEANNIE 1952-08-04 03:00:00 TS 15.8154 133.253 main 933 933 P________PPP__ WP071952 15.8204 133.267 32 -1 15.8204 133.267 TC 32 15.8004 133.210 1 31 15.8204 133.267 32 1002 300 20 77
1952215N13131 1952 47 WP MM JEANNE:JEANNIE 1952-08-04 06:00:00 TS 16.0479 134.651 1004 tokyo main 1079 1079 OOO______OPO__ jtwc_wp WP071952 16.1000 134.100 35 0 15.8000 139.300 2 1004 0 0 0 15.7000 139.300 1 29 1004 16.1000 134.100 TC 35 16.0404 133.980 1 32 16.1000 134.100 35 1002 300 24 77
1952215N13131 1952 47 WP MM JEANNE:JEANNIE 1952-08-04 09:00:00 TS 16.3400 135.653 main 1191 1191 PPP______PPP__ WP071952 16.3775 134.873 35 0 16.2902 138.803 2 1002 0 0 16.1750 138.875 1 33 1002 16.3775 134.873 TC 35 16.3349 134.810 1 33 16.3775 134.873 35 1001 300 18 68
1952215N13131 1952 47 WP MM JEANNE:JEANNIE 1952-08-04 12:00:00 TS 16.7136 136.350 1000 tokyo main 1277 1277 OOO______OOO__ jtwc_wp WP071952 16.7000 135.600 35 0 16.8000 138.300 2 1000 0 0 0 16.7000 138.400 2 38 1000 16.7000 135.600 TC 35 16.7000 135.600 2 35 16.7000 135.600 35 1001 300 13 52
1952215N13131 1952 47 WP MM JEANNE:JEANNIE 1952-08-04 15:00:00 TS 17.1636 136.763 main 1338 1338 PPP______PPP__ WP071952 17.0472 136.238 35 0 17.3551 137.805 2 999 0 0 17.3127 137.863 2 38 999 17.0472 136.238 TC 35 17.1719 136.195 2 35 17.0472 136.238 35 1000 300 12 32
1952215N13131 1952 47 WP MM JEANNE:JEANNIE 1952-08-04 18:00:00 TS 17.7017 136.990 998 tokyo main 1380 1380 OOO______OPO__ jtwc_wp WP071952 17.5000 136.800 35 0 18.0000 137.400 9 998 0 0 0 18.0000 137.400 2 38 998 17.5000 136.800 TC 35 17.7104 136.738 2 35 17.5000 136.800 35 1000 300 13 20
1952215N13131 1952 47 WP MM JEANNE:JEANNIE 1952-08-04 21:00:00 TS 18.3691 137.212 main 1433 1433 PPP______PPP__ WP071952 18.1421 137.300 35 0 18.7847 137.059 9 998 0 0 18.7347 137.051 2 38 998 18.1421 137.300 TC 35 18.2689 137.261 2 35 18.1421 137.300 35 999 270 15 21
1952215N13131 1952 47 WP MM JEANNE:JEANNIE 1952-08-05 00:00:00 TS 19.0500 137.533 998 tokyo main 1494 1468 OOO______OOO__ jtwc_wp WP071952 18.8000 137.800 35 0 19.6000 137.000 9 998 0 0 0 19.5000 137.000 2 38 998 18.8000 137.800 TC 35 18.8000 137.800 2 35 18.8000 137.800 35 999 240 15 32
1952215N13131 1952 47 WP MM JEANNE:JEANNIE 1952-08-05 03:00:00 TS 19.6151 138.043 main 1468 1451 PPP______PPP__ WP071952 19.2948 138.378 35 0 20.3224 137.357 9 996 0 0 20.2724 137.357 2 38 996 19.2948 138.378 TC 35 19.2115 138.413 2 35 19.2948 138.378 35 998 180 15 45
1952215N13131 1952 47 WP MM JEANNE:JEANNIE 1952-08-05 06:00:00 TS 20.1154 138.674 995 tokyo main 1456 1440 OOO______OPO__ jtwc_wp WP071952 19.7000 139.000 35 0 21.0000 138.000 9 995 0 0 0 21.0000 138.000 2 38 995 19.7000 139.000 TC 35 19.5924 139.045 2 35 19.7000 139.000 35 998 120 16 52
1952215N13131 1952 47 WP MM JEANNE:JEANNIE 1952-08-05 09:00:00 TS 20.5765 139.339 main 1440 1437 PPP______PPP__ WP071952 20.0423 139.643 35 0 21.7026 138.712 9 995 0 0 21.6526 138.712 2 38 995 20.0423 139.643 TC 35 19.9771 139.679 2 35 20.0423 139.643 35 997 120 16 55
1952215N13131 1952 47 WP MM JEANNE:JEANNIE 1952-08-05 12:00:00 TS 21.0167 140.033 995 tokyo main 1442 1420 OOO______OOO__ jtwc_wp WP071952 20.4000 140.300 35 0 22.3000 139.500 9 995 0 0 0 22.2000 139.500 2 38 995 20.4000 140.300 TC 35 20.4000 140.300 2 35 20.4000 140.300 35 997 120 16 56
1952215N13131 1952 47 WP MM JEANNE:JEANNIE 1952-08-05 15:00:00 TS 21.4520 140.748 main 1413 1392 PPP______PPP__ WP071952 20.8625 140.973 35 0 22.6801 140.288 9 995 0 0 22.6301 140.288 2 38 995 20.8625 140.973 TC 35 20.8146 140.994 2 36 20.8625 140.973 35 996 150 16 55
1952215N13131 1952 47 WP MM JEANNE:JEANNIE 1952-08-05 18:00:00 TS 21.9140 141.410 995 tokyo main 1396 1369 OOO______OPO__ jtwc_wp WP071952 21.4000 141.600 35 0 23.0000 141.000 9 995 0 0 0 23.0000 141.000 2 38 995 21.4000 141.600 TC 35 21.2843 141.657 2 37 21.4000 141.600 35 996 180 15 51
1952215N13131 1952 47 WP MM JEANNE:JEANNIE 1952-08-05 21:00:00 TS 22.3931 141.987 main 1369 1327 PPP______PPP__ WP071952 21.9101 142.183 37 0 23.4048 141.583 9 995 0 0 23.3622 141.576 2 43 995 21.9101 142.183 TC 37 21.8616 142.217 2 38 21.9101 142.183 37 995 180 14 40
1952215N13131 1952 47 WP MM JEANNE:JEANNIE 1952-08-06 00:00:00 TS 23.0167 142.400 995 tokyo main 1327 1259 OOO______OOO__ jtwc_wp WP071952 22.6000 142.600 40 0 23.9000 142.000 9 995 0 0 0 23.8000 142.000 3 48 995 22.6000 142.600 TC 40 22.6000 142.600 2 40 22.6000 142.600 40 994 180 16 22
1952215N13131 1952 47 WP MM JEANNE:JEANNIE 1952-08-06 03:00:00 TS 23.8909 142.649 main 1249 1145 PPP______PPP__ WP071952 23.6173 142.812 40 0 24.4973 142.297 9 995 0 0 24.3898 142.362 3 48 995 23.6173 142.812 TC 40 23.6063 142.797 2 40 23.6173 142.812 40 993 180 19 8
1952215N13131 1952 47 WP MM JEANNE:JEANNIE 1952-08-06 06:00:00 TS 24.9108 142.684 995 tokyo main 1145 1036 OOO______OPO__ jtwc_wp WP071952 24.8000 142.800 40 0 25.2000 142.400 9 995 0 0 0 25.1000 142.500 3 48 995 24.8000 142.800 TC 40 24.7648 142.801 2 40 24.8000 142.800 40 993 180 21 357
1952215N13131 1952 47 WP MM JEANNE:JEANNIE 1952-08-06 09:00:00 TS 25.9288 142.542 main 1033 918 PPP______PPP__ WP071952 25.9498 142.647 40 0 25.9324 142.332 9 992 0 0 25.8250 142.348 3 48 992 25.9498 142.647 TC 40 25.9660 142.630 2 40 25.9498 142.647 40 992 180 21 349
1952215N13131 1952 47 WP MM JEANNE:JEANNIE 1952-08-06 12:00:00 TS 26.9833 142.217 990 tokyo main 907 778 OOO______OOO__ jtwc_wp WP071952 27.1000 142.300 40 0 26.8000 142.100 9 990 0 0 0 26.7000 142.000 3 48 990 27.1000 142.300 TC 40 27.1000 142.300 2 40 27.1000 142.300 40 992 180 23 343
1952215N13131 1952 47 WP MM JEANNE:JEANNIE 1952-08-06 15:00:00 TS 28.1267 141.782 main 778 657 PPP______PPP__ WP071952 28.2899 141.811 40 0 27.9144 141.847 9 987 0 0 27.8651 141.624 3 53 987 28.2899 141.811 TC 40 28.1111 141.787 2 41 28.2899 141.811 40 991 180 24 338
1952215N13131 1952 47 WP MM JEANNE:JEANNIE 1952-08-06 18:00:00 TS 29.1540 141.222 985 tokyo main 643 561 OOO______OPO__ jtwc_wp WP071952 29.3000 141.200 40 0 29.0000 141.400 9 985 0 0 0 29.0000 141.200 3 58 985 29.3000 141.200 TC 40 29.0238 141.135 2 42 29.3000 141.200 40 991 180 21 329
1952215N13131 1952 47 WP MM JEANNE:JEANNIE 1952-08-06 21:00:00 TS 29.8781 140.567 main 550 492 PPP______PPP__ WP071952 29.9781 140.490 42 0 29.7601 140.682 9 990 0 0 29.7749 140.784 3 48 990 29.9781 140.490 TC 42 29.7990 140.464 2 43 29.9781 140.490 42 990 180 16 318
1952215N13131 1952 47 WP MM JEANNE:JEANNIE 1952-08-07 00:00:00 TS 30.3478 139.965 995 tokyo main 492 442 OOO______OOO__ jtwc_wp WP071952 30.4000 139.900 45 0 30.4000 139.800 9 995 0 0 0 30.4000 140.400 2 38 995 30.4000 139.900 TC 45 30.4000 139.900 2 45 30.4000 139.900 45 990 180 11 316
1952215N13131 1952 47 WP MM JEANNE:JEANNIE 1952-08-07 03:00:00 TS 30.6816 139.661 main 442 417 PPP______PPP__ WP071952 30.7019 139.674 45 0 31.0809 138.900 9 994 0 0 31.0376 140.081 2 33 996 30.7019 139.674 TC 45 30.7915 139.587 2 45 30.7019 139.674 45 990 240 6 325
1952215N13131 1952 47 WP MM JEANNE:JEANNIE 1952-08-07 06:00:00 TS 30.8753 139.539 994 tokyo main 417 406 OOO______OPO__ jtwc_wp WP071952 30.9000 139.600 45 0 31.8000 138.000 9 994 0 0 0 31.7000 139.800 1 29 998 30.9000 139.600 TC 45 31.0203 139.406 2 45 30.9000 139.600 45 990 300 4 330
1952215N13131 1952 47 WP MM JEANNE:JEANNIE 1952-08-07 09:00:00 TS 30.9888 139.457 main 406 381 P________PPP__ WP071952 31.1075 139.428 45 0 9 0 0 1 31.1075 139.428 TC 45 31.1640 139.323 2 45 31.1075 139.428 45 990 300 4 333
1952215N13131 1952 47 WP MM JEANNE:JEANNIE 1952-08-07 12:00:00 TS 31.2200 139.340 main 381 359 O________OOO__ jtwc_wp WP071952 31.3000 139.300 45 0 31.3000 139.300 TC 45 31.3000 139.300 2 45 31.3000 139.300 45 990 300 5 343
1952215N13131 1952 47 WP MM JEANNE:JEANNIE 1952-08-07 15:00:00 TS 31.4405 139.292 main 359 326 P________PPP__ WP071952 31.4850 139.270 42 0 31.4850 139.270 TC 42 31.4976 139.215 2 42 31.4850 139.270 42 990 300 5 0
1952215N13131 1952 47 WP MM JEANNE:JEANNIE 1952-08-07 18:00:00 TS 31.6818 139.318 main 326 295 O________OPO__ jtwc_wp WP071952 31.7000 139.300 40 0 31.7000 139.300 TC 40 31.7091 139.188 2 40 31.7000 139.300 40 990 300 5 7
1952215N13131 1952 47 WP MM JEANNE:JEANNIE 1952-08-07 21:00:00 TS 31.9776 139.368 main 295 264 P________PPP__ WP071952 31.9549 139.306 37 0 31.9549 139.306 TC 37 31.9661 139.241 2 37 31.9549 139.306 37 991 270 7 15
1952215N13131 1952 47 WP MM JEANNE:JEANNIE 1952-08-08 00:00:00 TS 32.3400 139.520 main 264 227 O________OOO__ jtwc_wp WP071952 32.3000 139.400 35 0 32.3000 139.400 TC 35 32.3000 139.400 2 35 32.3000 139.400 35 992 240 9 25
1952215N13131 1952 47 WP MM JEANNE:JEANNIE 1952-08-08 03:00:00 TS 32.7579 139.797 main 220 190 P________PPP__ WP071952 32.7624 139.633 32 -1 32.7624 139.633 TC 32 32.7323 139.680 2 33 32.7624 139.633 32 993 240 11 32
1952215N13131 1952 47 WP MM JEANNE:JEANNIE 1952-08-08 06:00:00 TS 33.2492 140.199 main 191 148 O________OPO__ jtwc_wp WP071952 33.3000 140.000 30 -1 33.3000 140.000 TC 30 33.2448 140.060 2 32 33.3000 140.000 30 994 240 13 36
1952215N13131 1952 47 WP MM JEANNE:JEANNIE 1952-08-08 09:00:00 TS 33.7768 140.693 main 142 121 P________PPP__ WP071952 33.8051 140.471 30 -1 33.8051 140.471 TC 30 33.8100 140.510 2 31 33.8051 140.471 30 995 210 15 38
1952215N13131 1952 47 WP MM JEANNE:JEANNIE 1952-08-08 12:00:00 TS 34.4000 141.286 main 121 105 O________OOO__ jtwc_wp WP071952 34.4000 141.000 30 -1 34.4000 141.000 TC 30 34.4000 141.000 1 30 34.4000 141.000 30 997 180 17 36
1952215N13131 1952 47 WP MM JEANNE:JEANNIE 1952-08-08 15:00:00 TS 35.1625 141.891 main 106 106 P________P_P__ WP071952 35.1527 141.508 27 -1 35.1527 141.508 TC 27 1 35.1527 141.508 27 999 210 19 32
1952215N13131 1952 47 WP MM JEANNE:JEANNIE 1952-08-08 18:00:00 TS 36.0000 142.514 main 147 147 O________O_O__ jtwc_wp WP071952 36.0000 142.000 25 -1 36.0000 142.000 TC 25 1 36.0000 142.000 25 1001 240 20 35
1952215N13131 1952 47 WP MM JEANNE:JEANNIE 1952-08-08 21:00:00 TS 36.8445 143.328 main 205 205 ______________ WP071952 -1 TC 1 19 33
1952215N13131 1952 47 WP MM JEANNE:JEANNIE 1952-08-09 00:00:00 TS 37.6000 143.800 main 215 215 ______________ -1 16 32
1952215N13131 1952 47 WP MM JEANNE:JEANNIE 1952-08-09 03:00:00 TS 38.1597 144.364 main 242 242 ______________ -1 14 43
1952215N13131 1952 47 WP MM JEANNE:JEANNIE 1952-08-09 06:00:00 ET 38.6000 145.000 main 269 269 ______________ -1 14 51
1952215N13131 1952 47 WP MM JEANNE:JEANNIE 1952-08-09 09:00:00 ET 39.0307 145.745 main 314 314 ______________ -1 13 54
1952215N13131 1952 47 WP MM JEANNE:JEANNIE 1952-08-09 12:00:00 ET 39.4000 146.400 main 368 368 ______________ -1 10 42
1952215N13131 1952 47 WP MM JEANNE:JEANNIE 1952-08-09 15:00:00 ET 39.7559 146.582 main 368 361 ______________ -1 8 38
1952215N13131 1952 47 WP MM JEANNE:JEANNIE 1952-08-09 18:00:00 ET 40.0000 147.000 main 370 370 ______________ -1 14 78
1952215N13131 1952 47 WP MM JEANNE:JEANNIE 1952-08-09 21:00:00 ET 40.0507 148.396 main 420 420 ______________ -1 23 90
1952215N13131 1952 47 WP MM JEANNE:JEANNIE 1952-08-10 00:00:00 ET 40.0000 150.000 main 515 515 ______________ -1 21 91
1952215N13131 1952 47 WP MM JEANNE:JEANNIE 1952-08-10 03:00:00 ET 39.9980 151.127 main 584 584 ______________ -1 15 90
1952215N13131 1952 47 WP MM JEANNE:JEANNIE 1952-08-10 06:00:00 ET 40.0000 152.000 main 643 643 ______________ -1 12 90
1952215N13131 1952 47 WP MM JEANNE:JEANNIE 1952-08-10 09:00:00 ET 39.9986 152.702 main 668 668 ______________ -1 10 90
1952215N13131 1952 47 WP MM JEANNE:JEANNIE 1952-08-10 12:00:00 ET 40.0000 153.300 main 687 687 ______________ -1 10 90
1952215N13131 1952 47 WP MM JEANNE:JEANNIE 1952-08-10 15:00:00 ET 39.9998 153.958 main 713 713 ______________ -1 10 90
1952215N13131 1952 47 WP MM JEANNE:JEANNIE 1952-08-10 18:00:00 ET 40.0000 154.600 main 738 738 ______________ -1 10 90
1952215N13131 1952 47 WP MM JEANNE:JEANNIE 1952-08-10 21:00:00 ET 39.9996 155.208 main 766 766 ______________ -1 9 90
1952215N13131 1952 47 WP MM JEANNE:JEANNIE 1952-08-11 00:00:00 ET 40.0000 155.800 main 795 795 ______________ -1 9 90
1952215N13131 1952 47 WP MM JEANNE:JEANNIE 1952-08-11 03:00:00 ET 39.9999 156.415 main 826 826 ______________ -1 9 90
1952215N13131 1952 47 WP MM JEANNE:JEANNIE 1952-08-11 06:00:00 ET 40.0000 157.000 main 858 858 ______________ -1 8 90
1952215N13131 1952 47 WP MM JEANNE:JEANNIE 1952-08-11 09:00:00 ET 39.9996 157.515 main 885 885 ______________ -1 8 90
1952215N13131 1952 47 WP MM JEANNE:JEANNIE 1952-08-11 12:00:00 ET 40.0000 158.000 main 912 912 ______________ -1 8 91
1952215N13131 1952 47 WP MM JEANNE:JEANNIE 1952-08-11 15:00:00 ET 39.9848 158.500 main 940 940 ______________ -1 8 90
1952215N13131 1952 47 WP MM JEANNE:JEANNIE 1952-08-11 18:00:00 ET 40.0000 159.000 main 969 969 ______________ -1 8 82
1952215N13131 1952 47 WP MM JEANNE:JEANNIE 1952-08-11 21:00:00 ET 40.0922 159.492 main 991 991 ______________ -1 8 75
1952215N13131 1952 47 WP MM JEANNE:JEANNIE 1952-08-12 00:00:00 ET 40.2000 160.000 main 1014 1014 ______________ -1 8 79
1952215N13131 1952 47 WP MM JEANNE:JEANNIE 1952-08-12 03:00:00 ET 40.2494 160.513 main 1045 1038 ______________ -1 8 83
1952215N13131 1952 47 WP MM JEANNE:JEANNIE 1952-08-12 06:00:00 ET 40.3000 161.100 main 1076 1076 ______________ -1 10 82
1952215N13131 1952 47 WP MM JEANNE:JEANNIE 1952-08-12 09:00:00 ET 40.3850 161.820 main 1115 1115 ______________ -1 12 80
1952215N13131 1952 47 WP MM JEANNE:JEANNIE 1952-08-12 12:00:00 ET 40.5000 162.600 main 1162 1162 ______________ -1 12 78
1952215N13131 1952 47 WP MM JEANNE:JEANNIE 1952-08-12 15:00:00 ET 40.6189 163.321 main 1203 1203 ______________ -1 12 75
1952215N13131 1952 47 WP MM JEANNE:JEANNIE 1952-08-12 18:00:00 ET 40.8000 164.100 main 1221 1221 ______________ -1 13 73
1952215N13131 1952 47 WP MM JEANNE:JEANNIE 1952-08-12 21:00:00 ET 41.0023 165.016 main 1239 1239 ______________ -1 16 67
1952215N13131 1952 47 WP MM JEANNE:JEANNIE 1952-08-13 00:00:00 ET 41.4000 166.000 main 1248 1231 ______________ -1 19 53
1952215N13131 1952 47 WP MM JEANNE:JEANNIE 1952-08-13 03:00:00 ET 42.1556 167.041 main 1227 1216 ______________ -1 22 43
1952215N13131 1952 47 WP MM JEANNE:JEANNIE 1952-08-13 06:00:00 ET 43.0000 168.000 main 1216 1192 ______________ -1 19 39
1952215N13131 1952 47 WP MM JEANNE:JEANNIE 1952-08-13 09:00:00 ET 43.6646 168.724 main 1188 1174 ______________ -1 15 38
1952215N13131 1952 47 WP MM JEANNE:JEANNIE 1952-08-13 12:00:00 ET 44.2000 169.300 main 1176 ______________ -1 14 38

デジタル台風データ・検索

IBTrACS Databaseについて

本データベースは、米国NOAAが公開する1842年以降の世界の熱帯低気圧のベストトラックデータアーカイブInternational Best Track Archive for Climate Stewardship (IBTrACS)を、ウェブで閲覧しやすい形式に変換したものです。

最終更新日:2021-10-08